Time;durP1;ratioP1;P1;durP2;ratioP2;P2;SDS_P1;SDS_P2;PMS_P1;PMS_P2;Temp;Humidity;BMP_temperature;BMP_pressure;BME280_temperature;BME280_humidity;BME280_pressure;Samples;Min_cycle;Max_cycle;Signal;HPM_P1;HPM_P2
2021/11/04 00:00:24;;;;;;;185.30;40.63;;;6.00;99.90;;;;;;5029779;28;20041;-61
2021/11/04 00:02:50;;;;;;;115.30;38.22;;;6.00;99.90;;;;;;5015568;28;20092;-61
2021/11/04 00:05:17;;;;;;;55.03;30.10;;;6.00;99.90;;;;;;5028890;28;20038;-48
2021/11/04 00:07:43;;;;;;;85.80;33.72;;;6.00;99.90;;;;;;5015834;28;20061;-49
2021/11/04 00:10:11;;;;;;;127.50;36.75;;;6.00;99.90;;;;;;5013736;28;20141;-61
2021/11/04 00:12:37;;;;;;;137.05;37.88;;;6.00;99.90;;;;;;5016847;28;20061;-61
2021/11/04 00:15:04;;;;;;;146.07;39.13;;;6.00;99.90;;;;;;5017225;28;20049;-61
2021/11/04 00:17:30;;;;;;;161.70;40.67;;;5.90;99.90;;;;;;5028103;28;20103;-61
2021/11/04 00:19:57;;;;;;;158.75;40.47;;;5.90;99.90;;;;;;5012801;28;20045;-60
2021/11/04 00:22:24;;;;;;;151.45;39.33;;;5.90;99.90;;;;;;5028935;28;20552;-60
2021/11/04 00:24:50;;;;;;;223.23;48.25;;;5.80;99.90;;;;;;5029315;28;20041;-60
2021/11/04 00:27:16;;;;;;;211.25;44.85;;;5.90;99.90;;;;;;5014245;28;20045;-60
2021/11/04 00:29:42;;;;;;;286.45;49.40;;;5.90;99.90;;;;;;5031465;28;20456;-61
2021/11/04 00:32:08;;;;;;;334.55;55.05;;;5.80;99.90;;;;;;5030479;28;20147;-60
2021/11/04 00:34:34;;;;;;;214.40;46.88;;;5.90;99.90;;;;;;5029545;28;20045;-61
2021/11/04 00:37:00;;;;;;;264.73;51.72;;;5.90;99.90;;;;;;5031395;28;20054;-61
2021/11/04 00:39:26;;;;;;;153.70;42.60;;;6.00;99.90;;;;;;5021747;28;20045;-62
2021/11/04 00:41:52;;;;;;;302.98;52.33;;;6.00;99.90;;;;;;5032179;28;20052;-61
2021/11/04 00:44:18;;;;;;;186.82;40.75;;;6.00;99.90;;;;;;5009876;28;20044;-61
2021/11/04 00:46:44;;;;;;;255.95;46.65;;;5.90;99.90;;;;;;5029571;28;20045;-61
2021/11/04 00:49:11;;;;;;;381.67;57.83;;;5.90;99.90;;;;;;5025936;28;20045;-61
2021/11/04 00:51:37;;;;;;;214.85;48.45;;;5.90;99.90;;;;;;4995075;28;20045;-61
2021/11/04 00:54:03;;;;;;;398.83;59.13;;;6.00;99.90;;;;;;5016541;28;20511;-61
2021/11/04 00:56:29;;;;;;;324.40;53.20;;;5.90;99.90;;;;;;5021107;28;20163;-61
2021/11/04 00:58:55;;;;;;;279.88;54.72;;;5.90;99.90;;;;;;5017950;28;20451;-61
2021/11/04 01:01:23;;;;;;;222.88;48.08;;;5.90;99.90;;;;;;5014031;28;20468;-61
2021/11/04 01:03:50;;;;;;;435.23;65.38;;;6.00;99.90;;;;;;5027124;28;20068;-61
2021/11/04 01:06:18;;;;;;;204.93;44.28;;;6.00;99.90;;;;;;5018075;28;20041;-48
2021/11/04 01:08:44;;;;;;;311.58;51.75;;;6.00;99.90;;;;;;5017535;28;20046;-61
2021/11/04 01:11:10;;;;;;;242.88;45.60;;;6.00;99.90;;;;;;5018674;28;20049;-49
2021/11/04 01:13:36;;;;;;;295.30;49.50;;;5.90;99.90;;;;;;5022898;28;20048;-52
2021/11/04 01:16:03;;;;;;;333.85;47.05;;;5.90;99.90;;;;;;5041471;28;20092;-61
2021/11/04 01:18:29;;;;;;;374.50;53.88;;;5.80;99.90;;;;;;5013398;28;20088;-61
2021/11/04 01:20:55;;;;;;;417.35;62.83;;;5.80;99.90;;;;;;5028444;28;20405;-49
2021/11/04 01:23:21;;;;;;;314.58;53.00;;;5.80;99.90;;;;;;5030187;28;20042;-48
2021/11/04 01:25:47;;;;;;;368.80;60.97;;;5.80;99.90;;;;;;5029041;28;20061;-46
2021/11/04 01:28:15;;;;;;;355.58;56.15;;;5.80;99.90;;;;;;5029460;28;20132;-46
2021/11/04 01:30:41;;;;;;;361.05;58.03;;;5.80;99.90;;;;;;5015116;28;20091;-46
2021/11/04 01:33:08;;;;;;;471.40;66.57;;;5.80;99.90;;;;;;5008660;28;20108;-61
2021/11/04 01:35:36;;;;;;;504.02;70.25;;;5.80;99.90;;;;;;5042292;28;20053;-47
2021/11/04 01:38:05;;;;;;;361.35;58.72;;;5.70;99.90;;;;;;5001689;28;20132;-61
2021/11/04 01:40:32;;;;;;;368.77;55.53;;;5.80;99.90;;;;;;5018507;28;20205;-62
2021/11/04 01:42:59;;;;;;;341.13;50.42;;;5.80;99.90;;;;;;5014016;28;20045;-62
2021/11/04 01:45:25;;;;;;;277.40;45.90;;;5.80;99.90;;;;;;5029987;28;20099;-62
2021/11/04 01:47:52;;;;;;;271.25;43.15;;;5.70;99.90;;;;;;5014721;28;20087;-62
2021/11/04 01:50:21;;;;;;;176.02;34.38;;;5.70;99.90;;;;;;5026550;28;20048;-62
2021/11/04 01:52:48;;;;;;;180.38;38.45;;;5.70;99.90;;;;;;5011375;28;20056;-52
2021/11/04 01:55:19;;;;;;;214.75;38.53;;;5.70;99.90;;;;;;5017349;28;20042;-49
2021/11/04 01:57:45;;;;;;;262.87;44.87;;;5.60;99.90;;;;;;4977113;28;20135;-49
2021/11/04 02:00:13;;;;;;;234.00;41.88;;;5.60;99.90;;;;;;5011952;28;20304;-62
2021/11/04 02:02:45;;;;;;;219.00;39.03;;;5.60;99.90;;;;;;4994892;28;20041;-62
2021/11/04 02:05:17;;;;;;;276.70;42.50;;;5.60;99.90;;;;;;5018537;28;20042;-62
2021/11/04 02:07:53;;;;;;;437.02;54.92;;;5.50;99.90;;;;;;5011983;28;20141;-47
2021/11/04 02:10:40;;;;;;;347.50;47.65;;;5.50;99.90;;;;;;5012383;28;20057;-49
2021/11/04 02:13:15;;;;;;;331.80;46.83;;;5.50;99.90;;;;;;5028990;28;20041;-62
2021/11/04 02:15:43;;;;;;;334.50;49.35;;;5.50;99.90;;;;;;5027238;28;20048;-62
2021/11/04 02:18:11;;;;;;;355.60;52.92;;;5.50;99.90;;;;;;5030514;28;20111;-62
2021/11/04 02:20:53;;;;;;;294.30;45.50;;;5.50;99.90;;;;;;5028303;28;20045;-62
2021/11/04 02:23:48;;;;;;;271.58;42.00;;;5.50;99.90;;;;;;5029628;28;20135;-63
2021/11/04 02:26:15;;;;;;;305.35;45.20;;;5.50;99.90;;;;;;5017908;28;20094;-62
2021/11/04 02:28:42;;;;;;;159.73;33.85;;;5.50;99.90;;;;;;5027617;28;20112;-62
2021/11/04 02:31:09;;;;;;;403.60;53.20;;;5.50;99.90;;;;;;5029446;28;20435;-63
2021/11/04 02:33:38;;;;;;;190.13;38.38;;;5.50;99.90;;;;;;5029111;28;20399;-62
2021/11/04 02:36:06;;;;;;;178.02;36.75;;;5.50;99.90;;;;;;5025737;28;20045;-53
2021/11/04 02:38:33;;;;;;;516.30;70.55;;;5.60;99.90;;;;;;5019158;28;20058;-51
2021/11/04 02:41:00;;;;;;;390.92;54.88;;;5.60;99.90;;;;;;5009188;28;20054;-50
2021/11/04 02:43:30;;;;;;;331.65;47.50;;;5.60;99.90;;;;;;5009664;28;20537;-49
2021/11/04 02:45:57;;;;;;;319.45;46.13;;;5.60;99.90;;;;;;5019397;28;20132;-62
2021/11/04 02:48:24;;;;;;;303.77;46.95;;;5.60;99.90;;;;;;5009014;28;20046;-62
2021/11/04 02:50:52;;;;;;;397.85;54.28;;;5.60;99.90;;;;;;5012209;28;20049;-62
2021/11/04 02:53:20;;;;;;;367.23;51.13;;;5.60;99.90;;;;;;5029312;28;20507;-62
2021/11/04 02:55:47;;;;;;;174.27;34.60;;;5.50;99.90;;;;;;5013619;28;20534;-62
2021/11/04 02:58:14;;;;;;;354.13;49.50;;;5.60;99.90;;;;;;5011153;28;20049;-63
2021/11/04 03:00:43;;;;;;;315.30;46.90;;;5.60;99.90;;;;;;5008766;28;20046;-61
2021/11/04 03:03:09;;;;;;;348.60;50.97;;;5.60;99.90;;;;;;5009369;28;20052;-60
2021/11/04 03:05:35;;;;;;;150.27;29.83;;;5.60;99.90;;;;;;4992738;28;20049;-62
2021/11/04 03:08:02;;;;;;;211.82;35.67;;;5.60;99.90;;;;;;4994301;28;20357;-62
2021/11/04 03:10:28;;;;;;;131.98;28.40;;;5.50;99.90;;;;;;5029376;28;20053;-62
2021/11/04 03:12:55;;;;;;;155.73;31.75;;;5.60;99.90;;;;;;5027964;28;20037;-62
2021/11/04 03:15:23;;;;;;;118.47;26.52;;;5.50;99.90;;;;;;4995717;28;20408;-62
2021/11/04 03:17:52;;;;;;;106.35;27.17;;;5.50;99.90;;;;;;5022316;28;20062;-62
2021/11/04 03:20:19;;;;;;;249.43;39.28;;;5.50;99.90;;;;;;5010081;28;20393;-48
2021/11/04 03:22:47;;;;;;;127.03;27.98;;;5.60;99.90;;;;;;5013810;28;20041;-56
2021/11/04 03:25:16;;;;;;;169.63;31.83;;;5.50;99.90;;;;;;5029391;28;20045;-49
2021/11/04 03:27:46;;;;;;;205.27;34.30;;;5.50;99.90;;;;;;5010796;28;20519;-63
2021/11/04 03:30:16;;;;;;;179.63;33.65;;;5.40;99.90;;;;;;5013788;28;20069;-62
2021/11/04 03:32:44;;;;;;;119.82;27.23;;;5.50;99.90;;;;;;5007944;28;20149;-48
2021/11/04 03:35:11;;;;;;;96.80;27.10;;;5.50;99.90;;;;;;5011737;28;20054;-50
2021/11/04 03:37:41;;;;;;;135.40;29.88;;;5.50;99.90;;;;;;5016953;28;20689;-62
2021/11/04 03:40:10;;;;;;;162.63;31.73;;;5.50;99.90;;;;;;5044933;28;20042;-62
2021/11/04 03:42:38;;;;;;;139.10;29.88;;;5.50;99.90;;;;;;5023298;28;20049;-51
2021/11/04 03:45:05;;;;;;;176.60;33.13;;;5.40;99.90;;;;;;5032751;28;20087;-51
2021/11/04 03:47:31;;;;;;;154.05;31.40;;;5.40;99.90;;;;;;5030147;28;20049;-50
2021/11/04 03:49:59;;;;;;;101.97;28.05;;;5.40;99.90;;;;;;5030156;28;20125;-52
2021/11/04 03:52:27;;;;;;;133.77;27.50;;;5.40;99.90;;;;;;5001105;28;20053;-49
2021/11/04 03:54:54;;;;;;;105.93;30.02;;;5.20;99.90;;;;;;5021753;28;20052;-62
2021/11/04 03:57:24;;;;;;;58.30;22.15;;;5.20;99.90;;;;;;5031552;28;20045;-62
2021/11/04 03:59:52;;;;;;;105.28;25.83;;;5.30;99.90;;;;;;5000047;28;20037;-62
2021/11/04 04:02:20;;;;;;;77.72;26.35;;;5.30;99.90;;;;;;5015049;28;20484;-60
2021/11/04 04:04:56;;;;;;;141.07;35.28;;;5.30;99.90;;;;;;5020652;28;20052;-45
2021/11/04 04:07:32;;;;;;;126.95;33.17;;;5.20;99.90;;;;;;5016077;28;20041;-60
2021/11/04 04:09:59;;;;;;;63.60;26.02;;;5.30;99.90;;;;;;5043541;28;20053;-62
2021/11/04 04:12:26;;;;;;;61.95;28.83;;;5.30;99.90;;;;;;5030480;28;20041;-62
2021/11/04 04:14:52;;;;;;;50.55;25.17;;;5.30;99.90;;;;;;5024732;28;20106;-62
2021/11/04 04:17:21;;;;;;;54.35;24.60;;;5.20;99.90;;;;;;4999484;28;20058;-52
2021/11/04 04:19:48;;;;;;;61.53;24.85;;;5.30;99.90;;;;;;5028588;28;20103;-51
2021/11/04 04:22:15;;;;;;;101.40;30.92;;;5.30;99.90;;;;;;5030489;28;20057;-51
2021/11/04 04:24:41;;;;;;;167.90;36.13;;;5.30;99.90;;;;;;5031323;28;20060;-60
2021/11/04 04:27:07;;;;;;;79.78;27.88;;;5.30;99.90;;;;;;5032601;28;20104;-62
2021/11/04 04:29:33;;;;;;;70.85;27.60;;;5.30;99.90;;;;;;5030390;28;20473;-62
2021/11/04 04:31:59;;;;;;;110.88;31.17;;;5.30;99.90;;;;;;5012799;28;20107;-60
2021/11/04 04:34:26;;;;;;;131.73;34.72;;;5.30;99.90;;;;;;5032536;28;20080;-60
2021/11/04 04:36:52;;;;;;;54.60;27.30;;;5.30;99.90;;;;;;5023596;28;20111;-60
2021/11/04 04:39:19;;;;;;;64.32;29.67;;;5.30;99.90;;;;;;5026778;28;20042;-60
2021/11/04 04:41:45;;;;;;;42.92;27.33;;;5.30;99.90;;;;;;5032334;28;20046;-61
2021/11/04 04:44:12;;;;;;;37.03;25.13;;;5.30;99.90;;;;;;5013876;28;20116;-61
2021/11/04 04:46:38;;;;;;;37.45;24.85;;;5.30;99.90;;;;;;5028993;28;20108;-61
2021/11/04 04:49:04;;;;;;;39.25;26.35;;;5.30;99.90;;;;;;5030177;28;20519;-61
2021/11/04 04:51:30;;;;;;;36.70;25.02;;;5.30;99.90;;;;;;5031441;28;20107;-61
2021/11/04 04:53:56;;;;;;;33.92;23.98;;;5.30;99.90;;;;;;5029783;28;20440;-61
2021/11/04 04:56:22;;;;;;;41.13;26.08;;;5.30;99.90;;;;;;5015704;28;20050;-61
2021/11/04 04:58:48;;;;;;;42.38;26.52;;;5.30;99.90;;;;;;5027181;28;20045;-61
2021/11/04 05:01:14;;;;;;;45.80;27.15;;;5.40;99.90;;;;;;5016595;28;20041;-61
2021/11/04 05:03:40;;;;;;;49.40;28.38;;;5.40;99.90;;;;;;5029583;28;20602;-61
2021/11/04 05:06:07;;;;;;;39.75;24.80;;;5.40;99.90;;;;;;5011534;28;20046;-62
2021/11/04 05:08:33;;;;;;;45.83;28.73;;;5.40;99.90;;;;;;5029216;28;20059;-61
2021/11/04 05:10:59;;;;;;;50.05;27.75;;;5.40;99.90;;;;;;5012798;28;20056;-61
2021/11/04 05:13:25;;;;;;;61.42;30.98;;;5.40;99.90;;;;;;5031483;28;20103;-61
2021/11/04 05:15:51;;;;;;;58.30;29.75;;;5.40;99.90;;;;;;5028806;28;20053;-61
2021/11/04 05:18:17;;;;;;;65.38;32.13;;;5.40;99.90;;;;;;5031495;28;20044;-61
2021/11/04 05:20:43;;;;;;;45.80;28.80;;;5.40;99.90;;;;;;5027332;28;20064;-61
2021/11/04 05:23:09;;;;;;;60.83;30.63;;;5.50;99.90;;;;;;5030658;28;20484;-61
2021/11/04 05:25:36;;;;;;;58.22;28.48;;;5.50;99.90;;;;;;5031049;28;20049;-61
2021/11/04 05:28:02;;;;;;;46.92;27.58;;;5.50;99.90;;;;;;5028543;28;20061;-62
2021/11/04 05:30:28;;;;;;;58.90;30.58;;;5.40;99.90;;;;;;5013937;28;20053;-61
2021/11/04 05:32:54;;;;;;;49.05;27.88;;;5.50;99.90;;;;;;5020772;28;20045;-62
2021/11/04 05:35:20;;;;;;;40.72;28.00;;;5.60;99.90;;;;;;5030304;28;20546;-61
2021/11/04 05:37:46;;;;;;;47.58;28.05;;;5.60;99.90;;;;;;5021171;28;20085;-61
2021/11/04 05:40:13;;;;;;;44.45;27.42;;;5.50;99.90;;;;;;5031173;28;20116;-61
2021/11/04 05:42:39;;;;;;;56.97;30.60;;;5.60;99.90;;;;;;5008090;28;20099;-61
2021/11/04 05:45:06;;;;;;;49.80;28.80;;;5.60;99.90;;;;;;5027478;28;20115;-65
2021/11/04 05:47:33;;;;;;;64.38;30.48;;;5.60;99.90;;;;;;5026667;28;20081;-61
2021/11/04 05:49:59;;;;;;;66.28;30.05;;;5.60;99.90;;;;;;5011218;28;20092;-46
2021/11/04 05:52:25;;;;;;;144.43;40.08;;;5.60;99.90;;;;;;5016122;28;20124;-61
2021/11/04 05:54:56;;;;;;;100.78;35.10;;;5.60;99.90;;;;;;5027872;28;20132;-61
2021/11/04 05:57:23;;;;;;;117.95;39.42;;;5.60;99.90;;;;;;5030180;28;20092;-62
2021/11/04 05:59:49;;;;;;;103.80;33.55;;;5.60;99.90;;;;;;5018871;28;20122;-61
2021/11/04 06:02:15;;;;;;;162.07;40.47;;;5.60;99.90;;;;;;5010573;28;20050;-62
2021/11/04 06:04:45;;;;;;;229.02;47.17;;;5.60;99.90;;;;;;5028976;28;20042;-52
2021/11/04 06:07:14;;;;;;;168.52;42.75;;;5.60;99.90;;;;;;5019930;28;20489;-47
2021/11/04 06:09:41;;;;;;;155.70;39.15;;;5.60;99.90;;;;;;5029716;28;20108;-46
2021/11/04 06:12:09;;;;;;;184.27;43.63;;;5.60;99.90;;;;;;5020502;28;20060;-61
2021/11/04 06:14:35;;;;;;;109.20;37.47;;;5.60;99.90;;;;;;5028371;28;20049;-61
2021/11/04 06:17:02;;;;;;;214.10;45.28;;;5.60;99.90;;;;;;5029764;28;20135;-61
2021/11/04 06:19:28;;;;;;;205.00;45.85;;;5.70;99.90;;;;;;5030206;28;20500;-61
2021/11/04 06:21:54;;;;;;;210.85;48.00;;;5.70;99.90;;;;;;5025851;28;20042;-47
2021/11/04 06:24:20;;;;;;;415.95;61.15;;;5.70;99.90;;;;;;5008892;28;20053;-48
2021/11/04 06:26:46;;;;;;;219.88;42.92;;;5.70;99.90;;;;;;5024938;28;20408;-61
2021/11/04 06:29:12;;;;;;;260.95;44.42;;;5.70;99.90;;;;;;5022144;28;20107;-61
2021/11/04 06:31:39;;;;;;;208.05;43.13;;;5.70;99.90;;;;;;5022471;28;20053;-61
2021/11/04 06:34:05;;;;;;;210.70;45.65;;;5.80;99.90;;;;;;5029524;28;20084;-61
2021/11/04 06:36:31;;;;;;;219.48;42.13;;;5.80;99.90;;;;;;5025595;28;20049;-61
2021/11/04 06:38:59;;;;;;;230.90;51.47;;;5.80;99.90;;;;;;5013915;28;20050;-61
2021/11/04 06:41:25;;;;;;;220.70;49.28;;;5.80;99.90;;;;;;5042566;28;20041;-61
2021/11/04 06:43:52;;;;;;;165.30;43.92;;;5.80;99.90;;;;;;5025685;28;20535;-47
2021/11/04 06:46:24;;;;;;;187.32;45.17;;;5.80;99.90;;;;;;5028419;28;20124;-48
2021/11/04 06:49:02;;;;;;;157.55;40.50;;;5.80;99.90;;;;;;5020634;28;20103;-52
2021/11/04 06:51:30;;;;;;;131.73;37.78;;;5.80;99.90;;;;;;5009597;28;20525;-61
2021/11/04 06:53:58;;;;;;;89.53;35.40;;;5.80;99.90;;;;;;5018206;28;20171;-62
2021/11/04 06:56:25;;;;;;;101.22;35.03;;;5.80;99.90;;;;;;5028702;28;20124;-61
2021/11/04 06:58:54;;;;;;;116.13;36.67;;;5.80;99.90;;;;;;5027168;28;20049;-61
2021/11/04 07:01:22;;;;;;;87.20;36.50;;;5.80;99.90;;;;;;5028683;28;20037;-61
2021/11/04 07:04:07;;;;;;;87.60;38.20;;;5.80;99.90;;;;;;5011607;28;20045;-62
2021/11/04 07:06:43;;;;;;;89.85;33.00;;;5.90;99.90;;;;;;5025393;28;20057;-61
2021/11/04 07:09:09;;;;;;;107.15;37.78;;;5.80;99.90;;;;;;5012023;28;20049;-50
2021/11/04 07:11:36;;;;;;;120.07;40.83;;;5.90;99.90;;;;;;5027748;28;20134;-47
2021/11/04 07:14:02;;;;;;;150.38;37.33;;;5.90;99.90;;;;;;5034226;28;20523;-46
2021/11/04 07:16:29;;;;;;;77.57;34.20;;;5.90;99.90;;;;;;5032184;28;20408;-47
2021/11/04 07:18:58;;;;;;;166.73;43.88;;;5.90;99.90;;;;;;5032145;28;20049;-49
2021/11/04 07:21:43;;;;;;;132.75;37.38;;;5.90;99.90;;;;;;5030624;28;20459;-61
2021/11/04 07:24:17;;;;;;;141.73;38.60;;;6.00;99.90;;;;;;5016388;28;20050;-61
2021/11/04 07:26:47;;;;;;;142.35;38.05;;;6.00;99.90;;;;;;5013547;28;20068;-61
2021/11/04 07:29:17;;;;;;;323.80;48.58;;;6.00;99.90;;;;;;5031142;28;20500;-46
2021/11/04 07:31:43;;;;;;;203.30;42.35;;;6.00;99.90;;;;;;5033872;28;20187;-47
2021/11/04 07:34:12;;;;;;;309.45;50.55;;;6.00;99.90;;;;;;5030867;28;20057;-52
2021/11/04 07:36:41;;;;;;;299.75;49.38;;;6.00;99.90;;;;;;5033298;28;20349;-47
2021/11/04 07:39:08;;;;;;;344.35;55.67;;;6.00;99.90;;;;;;5031556;28;20041;-46
2021/11/04 07:41:35;;;;;;;264.38;46.80;;;6.00;99.90;;;;;;5032931;28;20221;-47
2021/11/04 07:44:03;;;;;;;343.83;45.10;;;6.00;99.90;;;;;;5031069;28;20044;-54
2021/11/04 07:46:29;;;;;;;352.98;46.72;;;6.00;99.90;;;;;;5032734;28;20057;-49
2021/11/04 07:48:56;;;;;;;493.67;55.80;;;6.10;99.90;;;;;;5033297;28;20053;-49
2021/11/04 07:51:23;;;;;;;368.58;48.58;;;6.00;99.90;;;;;;5033123;28;20063;-46
2021/11/04 07:53:49;;;;;;;267.98;39.20;;;6.00;99.90;;;;;;5013412;28;20047;-46
2021/11/04 07:56:15;;;;;;;518.67;56.60;;;6.10;99.90;;;;;;5032822;28;20041;-47
2021/11/04 07:58:42;;;;;;;418.13;51.92;;;6.00;99.90;;;;;;5041824;28;20112;-50
2021/11/04 08:01:08;;;;;;;315.55;42.90;;;6.00;99.90;;;;;;5049114;28;20047;-50
2021/11/04 08:03:34;;;;;;;442.30;50.78;;;6.00;99.90;;;;;;5032284;28;20488;-49
2021/11/04 08:06:00;;;;;;;419.20;45.90;;;6.10;99.90;;;;;;5033472;28;20052;-50
2021/11/04 08:08:26;;;;;;;362.15;49.03;;;6.10;99.90;;;;;;5021447;28;20081;-48
2021/11/04 08:10:54;;;;;;;329.48;43.33;;;6.20;99.90;;;;;;5028723;28;20400;-48
2021/11/04 08:13:21;;;;;;;356.40;44.58;;;6.20;99.90;;;;;;5030174;28;20396;-50
2021/11/04 08:15:47;;;;;;;203.20;33.28;;;6.20;99.90;;;;;;5014684;28;20121;-49
2021/11/04 08:18:14;;;;;;;195.77;35.42;;;6.20;99.90;;;;;;5028747;28;20084;-52
2021/11/04 08:20:40;;;;;;;337.23;41.90;;;6.30;99.90;;;;;;5027276;28;20064;-52
2021/11/04 08:23:15;;;;;;;414.27;50.30;;;6.20;99.90;;;;;;5021082;28;20081;-51
2021/11/04 08:25:42;;;;;;;267.27;38.25;;;6.20;99.90;;;;;;5047254;28;20049;-47
2021/11/04 08:28:09;;;;;;;209.95;33.60;;;6.20;99.90;;;;;;5029386;28;20080;-51
2021/11/04 08:30:36;;;;;;;248.18;36.30;;;6.20;99.90;;;;;;5031360;28;20526;-60
2021/11/04 08:33:03;;;;;;;303.40;36.30;;;6.20;99.90;;;;;;5046275;28;20124;-60
2021/11/04 08:35:29;;;;;;;221.80;33.40;;;6.20;99.90;;;;;;5030578;28;20055;-61
2021/11/04 08:37:55;;;;;;;277.55;34.22;;;6.30;99.90;;;;;;5031404;28;20382;-48
2021/11/04 08:40:22;;;;;;;294.75;36.58;;;6.20;99.90;;;;;;5031265;28;20123;-51
2021/11/04 08:42:48;;;;;;;236.70;30.17;;;6.30;99.90;;;;;;5032903;28;20052;-51
2021/11/04 08:45:14;;;;;;;205.55;30.67;;;6.30;99.90;;;;;;5014978;28;20037;-48
2021/11/04 08:47:41;;;;;;;203.02;27.88;;;6.40;99.90;;;;;;5031404;28;20049;-48
2021/11/04 08:50:09;;;;;;;218.00;32.92;;;6.40;99.90;;;;;;5031208;28;20081;-47
2021/11/04 08:52:37;;;;;;;148.32;27.85;;;6.40;99.90;;;;;;5036340;28;20416;-48
2021/11/04 08:55:04;;;;;;;241.77;33.20;;;6.50;99.90;;;;;;5023480;28;20108;-51
2021/11/04 08:57:30;;;;;;;171.13;24.98;;;6.60;99.90;;;;;;5013148;28;20080;-47
2021/11/04 08:59:57;;;;;;;181.95;26.77;;;6.40;99.90;;;;;;5043854;28;20567;-50
2021/11/04 09:02:25;;;;;;;220.52;30.48;;;6.40;99.90;;;;;;5034408;28;20215;-47
2021/11/04 09:04:52;;;;;;;146.00;23.60;;;6.40;99.90;;;;;;5031211;28;20103;-52
2021/11/04 09:07:21;;;;;;;153.63;24.77;;;6.50;99.90;;;;;;5032598;28;20049;-51
2021/11/04 09:09:48;;;;;;;122.75;22.77;;;6.70;99.90;;;;;;5027539;28;20045;-48
2021/11/04 09:12:15;;;;;;;193.02;27.75;;;6.80;99.90;;;;;;5025740;28;20432;-62
2021/11/04 09:14:42;;;;;;;93.35;23.17;;;6.90;99.90;;;;;;5026841;28;20037;-62
2021/11/04 09:17:09;;;;;;;102.72;25.20;;;7.00;99.90;;;;;;5025985;28;20037;-51
2021/11/04 09:19:35;;;;;;;133.93;25.27;;;7.00;99.90;;;;;;5030023;28;20046;-51
2021/11/04 09:22:01;;;;;;;127.97;24.92;;;7.20;99.90;;;;;;5030211;28;20333;-61
2021/11/04 09:24:28;;;;;;;119.07;23.73;;;7.20;99.90;;;;;;5029236;28;20046;-61
2021/11/04 09:26:56;;;;;;;114.50;26.27;;;7.20;99.90;;;;;;5030628;28;20041;-62
2021/11/04 09:29:23;;;;;;;126.55;27.45;;;7.20;99.90;;;;;;5031021;28;20519;-62
2021/11/04 09:31:49;;;;;;;124.25;26.42;;;7.20;99.90;;;;;;5029748;28;20765;-60
2021/11/04 09:34:16;;;;;;;200.15;31.63;;;7.10;99.90;;;;;;5028957;28;20125;-61
2021/11/04 09:36:42;;;;;;;114.00;27.92;;;7.10;99.90;;;;;;5029701;28;20053;-61
2021/11/04 09:39:08;;;;;;;67.10;23.48;;;7.20;99.90;;;;;;5029144;28;20064;-48
2021/11/04 09:41:34;;;;;;;50.30;22.00;;;7.20;99.90;;;;;;5028783;28;20041;-49
2021/11/04 09:44:03;;;;;;;95.10;23.30;;;7.40;99.90;;;;;;5022524;28;20054;-50
2021/11/04 09:46:29;;;;;;;49.50;20.15;;;7.40;99.90;;;;;;5029795;28;20049;-51
2021/11/04 09:48:56;;;;;;;55.78;21.33;;;7.50;99.90;;;;;;5027307;28;20564;-49
2021/11/04 09:51:22;;;;;;;58.80;20.27;;;7.60;99.90;;;;;;5041078;28;20492;-46
2021/11/04 09:53:49;;;;;;;59.17;21.55;;;7.60;99.90;;;;;;5027487;28;20049;-51
2021/11/04 09:56:16;;;;;;;31.35;18.58;;;7.60;99.90;;;;;;5010103;28;20055;-49
2021/11/04 09:58:42;;;;;;;26.63;20.48;;;7.60;99.90;;;;;;5030077;28;20440;-49
2021/11/04 10:01:15;;;;;;;29.95;19.63;;;7.60;99.90;;;;;;5025656;28;20037;-50
2021/11/04 10:03:41;;;;;;;29.88;17.80;;;7.60;99.90;;;;;;5024975;28;20048;-51
2021/11/04 10:06:16;;;;;;;28.77;19.48;;;7.60;99.90;;;;;;5024351;28;20038;-48
2021/11/04 10:08:42;;;;;;;33.67;20.10;;;7.60;99.90;;;;;;5024687;28;20041;-61
2021/11/04 10:11:12;;;;;;;34.20;19.25;;;7.50;99.90;;;;;;5025039;28;20052;-61
2021/11/04 10:13:39;;;;;;;24.80;16.80;;;7.60;99.90;;;;;;5022623;28;20374;-61
2021/11/04 10:16:10;;;;;;;25.27;18.27;;;7.70;99.90;;;;;;4992418;28;20046;-61
2021/11/04 10:18:48;;;;;;;31.98;17.73;;;7.70;99.90;;;;;;5022322;28;20081;-61
2021/11/04 10:21:28;;;;;;;48.65;18.73;;;7.90;99.90;;;;;;5030060;28;20041;-62
2021/11/04 10:23:55;;;;;;;34.92;18.55;;;7.90;99.90;;;;;;5025251;28;20038;-60
2021/11/04 10:26:24;;;;;;;31.50;20.00;;;8.20;99.90;;;;;;5027454;28;20492;-61
2021/11/04 10:28:57;;;;;;;28.40;19.10;;;8.20;99.90;;;;;;5011445;28;20041;-60
2021/11/04 10:31:23;;;;;;;24.52;18.65;;;8.30;99.90;;;;;;5029531;28;20089;-61
2021/11/04 10:33:51;;;;;;;31.80;18.15;;;8.20;99.90;;;;;;5029624;28;20096;-60
2021/11/04 10:36:22;;;;;;;26.20;17.50;;;8.30;99.90;;;;;;5037569;28;20508;-60
2021/11/04 10:38:57;;;;;;;23.02;18.67;;;8.30;99.90;;;;;;5020256;28;20053;-61
2021/11/04 10:41:39;;;;;;;24.38;18.88;;;8.30;99.90;;;;;;5010025;28;20037;-47
2021/11/04 10:44:20;;;;;;;27.38;16.85;;;8.30;99.90;;;;;;5017614;28;20080;-46
2021/11/04 10:46:52;;;;;;;24.00;19.73;;;8.10;99.90;;;;;;5026347;28;20057;-46
2021/11/04 10:49:22;;;;;;;22.27;17.42;;;8.30;99.90;;;;;;5029639;28;20041;-47
2021/11/04 10:52:04;;;;;;;19.40;17.30;;;8.30;99.90;;;;;;5029064;28;20056;-46
2021/11/04 10:54:50;;;;;;;21.02;17.65;;;8.40;99.90;;;;;;5025092;28;20051;-46
2021/11/04 10:57:45;;;;;;;18.85;16.20;;;8.60;99.90;;;;;;4994993;28;20148;-48
2021/11/04 11:00:20;;;;;;;23.05;15.55;;;9.30;99.90;;;;;;5011755;28;20041;-50
2021/11/04 11:03:12;;;;;;;18.25;16.33;;;10.50;99.90;;;;;;5009321;28;20522;-47
2021/11/04 11:05:39;;;;;;;;;;;11.60;99.90;;;;;;5005136;28;20568;-48
2021/11/04 11:08:06;;;;;;;16.65;14.43;;;11.80;99.90;;;;;;5008307;28;19917;-49
2021/11/04 11:10:34;;;;;;;16.70;14.82;;;11.70;99.90;;;;;;5011800;28;20049;-50
2021/11/04 11:13:01;;;;;;;16.75;14.48;;;11.80;99.90;;;;;;5025935;28;20201;-50
2021/11/04 11:15:29;;;;;;;14.55;12.75;;;11.40;99.90;;;;;;5025500;28;20428;-48
2021/11/04 11:17:57;;;;;;;15.73;13.93;;;11.80;99.90;;;;;;5026538;28;20080;-48
2021/11/04 11:20:23;;;;;;;15.43;13.90;;;11.80;99.90;;;;;;5025239;28;20132;-50
2021/11/04 11:22:50;;;;;;;14.98;13.48;;;11.70;99.90;;;;;;5018365;28;20103;-51
2021/11/04 11:25:16;;;;;;;15.18;13.63;;;11.30;99.90;;;;;;5025364;28;20096;-51
2021/11/04 11:27:43;;;;;;;14.90;13.40;;;10.90;99.90;;;;;;5026156;28;20128;-47
2021/11/04 11:30:13;;;;;;;13.90;12.60;;;10.60;99.90;;;;;;5009621;28;20060;-53
2021/11/04 11:32:41;;;;;;;14.68;13.27;;;11.00;99.90;;;;;;5025271;28;20439;-51
2021/11/04 11:35:10;;;;;;;13.63;12.32;;;12.00;99.90;;;;;;5020735;28;20124;-52
2021/11/04 11:37:36;;;;;;;12.32;11.07;;;13.30;99.90;;;;;;5020337;28;20042;-52
2021/11/04 11:40:13;;;;;;;12.73;11.40;;;14.20;99.90;;;;;;5027978;28;20047;-47
2021/11/04 11:43:04;;;;;;;12.35;11.10;;;14.30;99.90;;;;;;5016698;28;20049;-47
2021/11/04 11:45:35;;;;;;;11.68;10.48;;;14.60;99.90;;;;;;5014470;28;20111;-49
2021/11/04 11:48:25;;;;;;;10.80;9.80;;;15.10;99.90;;;;;;5028696;28;20426;-48
2021/11/04 11:50:55;;;;;;;11.10;10.10;;;15.90;99.90;;;;;;4970925;28;20050;-46
2021/11/04 11:53:24;;;;;;;9.98;8.98;;;16.60;99.90;;;;;;4983867;28;20057;-48
2021/11/04 11:55:54;;;;;;;10.05;8.75;;;17.50;99.90;;;;;;4978122;28;20054;-52
2021/11/04 11:58:33;;;;;;;9.35;8.45;;;17.60;92.20;;;;;;4988030;28;20046;-50
2021/11/04 12:01:20;;;;;;;9.73;8.73;;;17.30;99.90;;;;;;4973081;28;20085;-52
2021/11/04 12:03:51;;;;;;;9.45;8.55;;;17.60;86.30;;;;;;4973895;28;20529;-61
2021/11/04 12:06:20;;;;;;;9.88;8.98;;;17.40;99.90;;;;;;4986151;28;20046;-61
2021/11/04 12:08:56;;;;;;;9.48;8.50;;;17.30;96.30;;;;;;4989584;28;20165;-61
2021/11/04 12:11:48;;;;;;;9.43;8.52;;;17.50;89.00;;;;;;4989075;28;20213;-61
2021/11/04 12:14:20;;;;;;;8.15;7.22;;;17.30;87.50;;;;;;4972842;28;20050;-61
2021/11/04 12:17:01;;;;;;;7.78;6.97;;;16.60;94.90;;;;;;4970598;28;20051;-51
2021/11/04 12:19:48;;;;;;;8.23;7.43;;;15.90;97.10;;;;;;4986472;28;20437;-47
2021/11/04 12:22:17;;;;;;;7.47;6.75;;;15.10;99.90;;;;;;4987949;28;20057;-49
2021/11/04 12:24:46;;;;;;;10.50;9.40;;;14.30;99.90;;;;;;4986819;28;20096;-47
2021/11/04 12:27:12;;;;;;;11.52;10.43;;;13.80;99.90;;;;;;4998199;28;20120;-48
2021/11/04 12:29:39;;;;;;;12.38;11.10;;;13.50;99.90;;;;;;5029108;28;20046;-51
2021/11/04 12:32:13;;;;;;;10.25;9.25;;;14.30;99.90;;;;;;5029265;28;20077;-49
2021/11/04 12:34:39;;;;;;;9.40;8.38;;;15.10;99.90;;;;;;5029136;28;20061;-52
2021/11/04 12:37:09;;;;;;;10.63;9.00;;;16.20;99.90;;;;;;5045740;28;20135;-48